createdAt,value
2022-08-20T00:00:14.400Z,992.63
2022-08-20T00:01:14.386Z,992.60
2022-08-20T00:02:14.463Z,992.59
2022-08-20T00:03:14.358Z,992.60
2022-08-20T00:04:14.349Z,992.61
2022-08-20T00:05:14.335Z,992.57
2022-08-20T00:06:14.327Z,992.59
2022-08-20T00:07:14.311Z,992.57
2022-08-20T00:08:14.296Z,992.61
2022-08-20T00:09:14.283Z,992.60
2022-08-20T00:10:14.271Z,992.58
2022-08-20T00:11:14.256Z,992.59
2022-08-20T00:12:14.243Z,992.59
2022-08-20T00:13:14.231Z,992.55
2022-08-20T00:14:14.216Z,992.58
2022-08-20T00:15:14.211Z,992.56
2022-08-20T00:16:14.189Z,992.55
2022-08-20T00:17:14.175Z,992.59
2022-08-20T00:18:14.166Z,992.56
2022-08-20T00:19:14.148Z,992.56
2022-08-20T00:20:14.140Z,992.57
2022-08-20T00:21:16.683Z,992.56
2022-08-20T00:22:14.109Z,992.57
2022-08-20T00:23:14.097Z,992.57
2022-08-20T00:24:14.088Z,992.60
2022-08-20T00:25:14.069Z,992.60
2022-08-20T00:26:14.058Z,992.63
2022-08-20T00:27:14.045Z,992.59
2022-08-20T00:28:14.032Z,992.61
2022-08-20T00:29:14.017Z,992.60
2022-08-20T00:30:14.012Z,992.64
2022-08-20T00:31:14.002Z,992.58
2022-08-20T00:32:13.977Z,992.61
2022-08-20T00:33:13.965Z,992.58
2022-08-20T00:34:13.951Z,992.59
2022-08-20T00:35:13.942Z,992.58
2022-08-20T00:36:13.927Z,992.57
2022-08-20T00:37:13.911Z,992.55
2022-08-20T00:38:13.904Z,992.56
2022-08-20T00:39:13.886Z,992.58
2022-08-20T00:40:22.431Z,992.58
2022-08-20T00:41:13.858Z,992.62
2022-08-20T00:42:13.847Z,992.65
2022-08-20T00:43:13.831Z,992.68
2022-08-20T00:44:13.821Z,992.68
2022-08-20T00:45:13.806Z,992.72
2022-08-20T00:46:13.792Z,992.74
2022-08-20T00:47:13.779Z,992.73
2022-08-20T00:48:13.766Z,992.72
2022-08-20T00:49:13.754Z,992.74
2022-08-20T00:50:13.740Z,992.69
2022-08-20T00:51:13.735Z,992.72
2022-08-20T00:52:13.710Z,992.75
2022-08-20T00:53:13.702Z,992.72
2022-08-20T00:54:13.685Z,992.74
2022-08-20T00:55:13.676Z,992.82
2022-08-20T00:56:13.658Z,992.79
2022-08-20T00:57:13.648Z,992.79
2022-08-20T00:58:13.631Z,992.77
2022-08-20T00:59:13.624Z,992.79
2022-08-20T01:00:13.607Z,992.76
2022-08-20T01:01:13.595Z,992.76
2022-08-20T01:02:13.626Z,992.82
2022-08-20T01:03:13.566Z,992.79
2022-08-20T01:04:13.550Z,992.81
2022-08-20T01:05:13.542Z,992.83
2022-08-20T01:06:13.526Z,992.88
2022-08-20T01:07:13.515Z,992.90
2022-08-20T01:08:13.505Z,992.88
2022-08-20T01:09:13.486Z,992.89
2022-08-20T01:10:13.471Z,992.91
2022-08-20T01:11:13.460Z,992.92
2022-08-20T01:12:13.447Z,992.93
2022-08-20T01:13:13.441Z,992.89
2022-08-20T01:14:13.421Z,992.93
2022-08-20T01:15:13.404Z,992.92
2022-08-20T01:16:13.393Z,992.92
2022-08-20T01:17:13.383Z,992.92
2022-08-20T01:18:13.365Z,992.92
2022-08-20T01:19:29.961Z,992.91
2022-08-20T01:20:13.340Z,992.92
2022-08-20T01:21:13.329Z,992.91
2022-08-20T01:22:13.309Z,992.98
2022-08-20T01:23:13.302Z,992.95
2022-08-20T01:24:13.287Z,992.99
2022-08-20T01:25:13.276Z,993.06
2022-08-20T01:26:13.261Z,993.05
2022-08-20T01:27:13.245Z,993.07
2022-08-20T01:28:13.232Z,993.11
2022-08-20T01:29:13.221Z,993.10
2022-08-20T01:30:13.204Z,993.12
2022-08-20T01:31:13.197Z,993.12
2022-08-20T01:32:13.183Z,993.11
2022-08-20T01:33:13.167Z,993.13
2022-08-20T01:34:13.152Z,993.16
2022-08-20T01:35:13.141Z,993.17
2022-08-20T01:36:13.126Z,993.14
2022-08-20T01:37:13.119Z,993.14
2022-08-20T01:38:13.100Z,993.10
2022-08-20T01:39:13.103Z,993.12
2022-08-20T01:40:13.122Z,993.12
2022-08-20T01:41:13.059Z,993.10
2022-08-20T01:42:13.046Z,993.10
2022-08-20T01:43:13.104Z,993.08
2022-08-20T01:44:16.707Z,993.09
2022-08-20T01:45:13.007Z,993.16
2022-08-20T01:46:12.991Z,993.09
2022-08-20T01:47:12.983Z,993.08
2022-08-20T01:48:12.965Z,993.09
2022-08-20T01:49:13.574Z,993.06
2022-08-20T01:50:12.937Z,993.10
2022-08-20T01:51:12.928Z,993.09
2022-08-20T01:52:12.919Z,993.09
2022-08-20T01:53:12.900Z,993.11
2022-08-20T01:54:12.885Z,993.08
2022-08-20T01:55:12.880Z,993.16
2022-08-20T01:56:12.859Z,993.13
2022-08-20T01:57:12.853Z,993.09
2022-08-20T01:58:12.839Z,993.17
2022-08-20T01:59:12.821Z,993.16
2022-08-20T02:00:19.708Z,993.17
2022-08-20T02:01:12.859Z,993.21
2022-08-20T02:02:12.783Z,993.19
2022-08-20T02:03:12.767Z,993.24
2022-08-20T02:04:15.334Z,993.23
2022-08-20T02:05:12.740Z,993.19
2022-08-20T02:06:12.728Z,993.22
2022-08-20T02:07:12.713Z,993.21
2022-08-20T02:08:12.700Z,993.22
2022-08-20T02:09:16.054Z,993.25
2022-08-20T02:10:12.671Z,993.21
2022-08-20T02:11:12.662Z,993.25
2022-08-20T02:12:12.645Z,993.28
2022-08-20T02:13:12.633Z,993.25
2022-08-20T02:14:12.619Z,993.28
2022-08-20T02:15:12.611Z,993.30
2022-08-20T02:16:12.649Z,993.28
2022-08-20T02:17:12.583Z,993.29
2022-08-20T02:18:12.570Z,993.27
2022-08-20T02:19:12.565Z,993.30
2022-08-20T02:20:12.545Z,993.27
2022-08-20T02:21:12.526Z,993.28
2022-08-20T02:22:12.512Z,993.25
2022-08-20T02:23:12.500Z,993.27
2022-08-20T02:24:12.487Z,993.29
2022-08-20T02:25:12.473Z,993.30
2022-08-20T02:26:12.457Z,993.27
2022-08-20T02:27:12.445Z,993.26
2022-08-20T02:28:12.431Z,993.29
2022-08-20T02:29:12.422Z,993.25
2022-08-20T02:30:19.950Z,993.29
2022-08-20T02:31:12.391Z,993.26
2022-08-20T02:32:24.435Z,993.29
2022-08-20T02:33:12.365Z,993.30
2022-08-20T02:34:21.860Z,993.30
2022-08-20T02:35:12.340Z,993.28
2022-08-20T02:36:12.330Z,993.28
2022-08-20T02:37:12.315Z,993.24
2022-08-20T02:38:12.298Z,993.25
2022-08-20T02:39:12.286Z,993.23
2022-08-20T02:40:12.338Z,993.23
2022-08-20T02:41:12.259Z,993.23
2022-08-20T02:42:12.245Z,993.23
2022-08-20T02:43:12.234Z,993.19
2022-08-20T02:44:12.221Z,993.18
2022-08-20T02:45:19.009Z,993.19
2022-08-20T02:46:12.190Z,993.18
2022-08-20T02:47:12.180Z,993.18
2022-08-20T02:48:12.168Z,993.23
2022-08-20T02:49:12.166Z,993.22
2022-08-20T02:50:12.137Z,993.23
2022-08-20T02:51:12.125Z,993.24
2022-08-20T02:52:12.120Z,993.26
2022-08-20T02:53:12.108Z,993.28
2022-08-20T02:54:12.092Z,993.25
2022-08-20T02:55:12.074Z,993.29
2022-08-20T02:56:12.063Z,993.30
2022-08-20T02:57:12.054Z,993.34
2022-08-20T02:58:12.033Z,993.31
2022-08-20T02:59:12.536Z,993.28
2022-08-20T03:00:12.009Z,993.28
2022-08-20T03:01:12.042Z,993.29
2022-08-20T03:02:11.982Z,993.32
2022-08-20T03:03:11.968Z,993.30
2022-08-20T03:04:11.954Z,993.30
2022-08-20T03:05:11.942Z,993.28
2022-08-20T03:06:11.932Z,993.29
2022-08-20T03:07:11.915Z,993.31
2022-08-20T03:08:11.903Z,993.29
2022-08-20T03:09:11.890Z,993.28
2022-08-20T03:10:11.886Z,993.25
2022-08-20T03:11:11.866Z,993.25
2022-08-20T03:12:11.852Z,993.27
2022-08-20T03:13:11.838Z,993.25
2022-08-20T03:14:11.824Z,993.25
2022-08-20T03:15:17.574Z,993.19
2022-08-20T03:16:11.850Z,993.17
2022-08-20T03:17:11.791Z,993.17
2022-08-20T03:18:11.772Z,993.20
2022-08-20T03:19:11.761Z,993.18
2022-08-20T03:20:11.744Z,993.18
2022-08-20T03:21:11.740Z,993.19
2022-08-20T03:22:11.721Z,993.21
2022-08-20T03:23:11.709Z,993.21
2022-08-20T03:24:11.700Z,993.22
2022-08-20T03:25:11.683Z,993.17
2022-08-20T03:26:11.666Z,993.20
2022-08-20T03:27:11.664Z,993.23
2022-08-20T03:28:11.649Z,993.21
2022-08-20T03:29:11.635Z,993.20
2022-08-20T03:30:11.616Z,993.21
2022-08-20T03:31:14.694Z,993.19
2022-08-20T03:32:11.598Z,993.16
2022-08-20T03:33:11.582Z,993.21
2022-08-20T03:34:11.564Z,993.12
2022-08-20T03:35:11.555Z,993.22
2022-08-20T03:36:11.543Z,993.18
2022-08-20T03:37:11.529Z,993.18
2022-08-20T03:38:11.517Z,993.16
2022-08-20T03:39:11.534Z,993.17
2022-08-20T03:40:11.603Z,993.17
2022-08-20T03:41:11.494Z,993.17
2022-08-20T03:42:11.466Z,993.17
2022-08-20T03:43:11.456Z,993.12
2022-08-20T03:44:11.440Z,993.19
2022-08-20T03:45:11.428Z,993.12
2022-08-20T03:46:21.979Z,993.15
2022-08-20T03:47:11.404Z,993.17
2022-08-20T03:48:11.388Z,993.13
2022-08-20T03:49:11.379Z,993.13
2022-08-20T03:50:11.366Z,993.13
2022-08-20T03:51:11.350Z,993.11
2022-08-20T03:52:11.336Z,993.14
2022-08-20T03:53:13.081Z,993.10
2022-08-20T03:54:11.312Z,993.10
2022-08-20T03:55:11.301Z,993.14
2022-08-20T03:56:11.286Z,993.20
2022-08-20T03:57:12.854Z,993.17
2022-08-20T03:58:11.263Z,993.18
2022-08-20T03:59:11.253Z,993.17
2022-08-20T04:00:11.238Z,993.18
2022-08-20T04:01:36.867Z,993.19
2022-08-20T04:02:11.275Z,993.20
2022-08-20T04:03:11.199Z,993.25
2022-08-20T04:04:12.231Z,993.19
2022-08-20T04:05:11.177Z,993.21
2022-08-20T04:06:11.161Z,993.22
2022-08-20T04:07:11.153Z,993.22
2022-08-20T04:08:11.135Z,993.22
2022-08-20T04:09:12.171Z,993.20
2022-08-20T04:10:11.112Z,993.22
2022-08-20T04:11:11.101Z,993.23
2022-08-20T04:12:11.087Z,993.21
2022-08-20T04:13:11.075Z,993.22
2022-08-20T04:14:11.332Z,993.17
2022-08-20T04:15:11.049Z,993.22
2022-08-20T04:16:13.469Z,993.18
2022-08-20T04:17:11.029Z,993.22
2022-08-20T04:18:11.014Z,993.22
2022-08-20T04:19:11.002Z,993.21
2022-08-20T04:20:10.989Z,993.23
2022-08-20T04:21:10.975Z,993.20
2022-08-20T04:22:10.960Z,993.18
2022-08-20T04:23:10.949Z,993.19
2022-08-20T04:24:27.508Z,993.22
2022-08-20T04:25:10.925Z,993.23
2022-08-20T04:26:10.918Z,993.24
2022-08-20T04:27:10.903Z,993.22
2022-08-20T04:28:10.888Z,993.25
2022-08-20T04:29:10.877Z,993.24
2022-08-20T04:30:10.861Z,993.23
2022-08-20T04:31:10.850Z,993.23
2022-08-20T04:32:10.836Z,993.25
2022-08-20T04:33:10.825Z,993.26
2022-08-20T04:34:10.822Z,993.25
2022-08-20T04:35:10.799Z,993.26
2022-08-20T04:36:10.787Z,993.26
2022-08-20T04:37:16.953Z,993.29
2022-08-20T04:38:10.766Z,993.28
2022-08-20T04:39:10.751Z,993.30
2022-08-20T04:40:10.834Z,993.31
2022-08-20T04:41:10.745Z,993.33
2022-08-20T04:42:10.711Z,993.33
2022-08-20T04:43:10.700Z,993.32
2022-08-20T04:44:10.686Z,993.32
2022-08-20T04:45:10.674Z,993.31
2022-08-20T04:46:10.661Z,993.33
2022-08-20T04:47:10.651Z,993.33
2022-08-20T04:48:14.791Z,993.33
2022-08-20T04:49:10.627Z,993.36
2022-08-20T04:50:10.628Z,993.32
2022-08-20T04:51:10.600Z,993.38
2022-08-20T04:52:10.590Z,993.35
2022-08-20T04:53:10.578Z,993.36
2022-08-20T04:54:10.566Z,993.36
2022-08-20T04:55:10.565Z,993.35
2022-08-20T04:56:10.537Z,993.37
2022-08-20T04:57:10.534Z,993.37
2022-08-20T04:58:10.513Z,993.39
2022-08-20T04:59:10.504Z,993.34
2022-08-20T05:00:10.490Z,993.38
2022-08-20T05:01:10.493Z,993.40
2022-08-20T05:02:10.465Z,993.41
2022-08-20T05:03:10.452Z,993.42
2022-08-20T05:04:10.441Z,993.43
2022-08-20T05:05:10.429Z,993.43
2022-08-20T05:06:10.420Z,993.45
2022-08-20T05:07:10.404Z,993.43
2022-08-20T05:08:16.695Z,993.41
2022-08-20T05:09:10.380Z,993.44
2022-08-20T05:10:10.369Z,993.41
2022-08-20T05:11:33.692Z,993.42
2022-08-20T05:12:10.340Z,993.47
2022-08-20T05:13:10.327Z,993.47
2022-08-20T05:14:10.319Z,993.48
2022-08-20T05:15:10.303Z,993.52
2022-08-20T05:16:10.295Z,993.52
2022-08-20T05:17:10.281Z,993.56
2022-08-20T05:18:10.269Z,993.57
2022-08-20T05:19:10.253Z,993.64
2022-08-20T05:20:10.242Z,993.57
2022-08-20T05:21:10.232Z,993.54
2022-08-20T05:22:10.220Z,993.57
2022-08-20T05:23:10.208Z,993.55
2022-08-20T05:24:10.259Z,993.54
2022-08-20T05:25:10.182Z,993.53
2022-08-20T05:26:10.167Z,993.57
2022-08-20T05:27:10.154Z,993.57
2022-08-20T05:28:10.144Z,993.58
2022-08-20T05:29:10.129Z,993.59
2022-08-20T05:30:11.740Z,993.61
2022-08-20T05:31:10.104Z,993.63
2022-08-20T05:32:10.094Z,993.61
2022-08-20T05:33:10.087Z,993.64
2022-08-20T05:34:11.299Z,993.66
2022-08-20T05:35:10.054Z,993.69
2022-08-20T05:36:10.043Z,993.67
2022-08-20T05:37:10.032Z,993.72
2022-08-20T05:38:10.031Z,993.76
2022-08-20T05:39:10.009Z,993.76
2022-08-20T05:40:10.081Z,993.76
2022-08-20T05:41:09.985Z,993.77
2022-08-20T05:42:09.973Z,993.78
2022-08-20T05:43:09.955Z,993.79
2022-08-20T05:44:10.064Z,993.84
2022-08-20T05:45:11.069Z,993.81
2022-08-20T05:46:09.919Z,993.84
2022-08-20T05:47:09.917Z,993.84
2022-08-20T05:48:09.898Z,993.84
2022-08-20T05:49:09.884Z,993.82
2022-08-20T05:50:09.870Z,993.86
2022-08-20T05:51:13.289Z,993.81
2022-08-20T05:52:09.850Z,993.87
2022-08-20T05:53:09.839Z,993.85
2022-08-20T05:54:09.823Z,993.86
2022-08-20T05:55:09.817Z,993.85
2022-08-20T05:56:09.801Z,993.88
2022-08-20T05:57:09.784Z,993.88
2022-08-20T05:58:09.774Z,993.90
2022-08-20T05:59:09.766Z,993.90
2022-08-20T06:00:09.751Z,993.95
2022-08-20T06:01:09.758Z,993.92
2022-08-20T06:02:09.724Z,993.92
2022-08-20T06:03:09.713Z,993.94
2022-08-20T06:04:09.710Z,993.98
2022-08-20T06:05:09.686Z,993.98
2022-08-20T06:06:15.099Z,993.96
2022-08-20T06:07:09.665Z,993.94
2022-08-20T06:08:09.651Z,993.93
2022-08-20T06:09:09.640Z,993.95
2022-08-20T06:10:09.631Z,993.93
2022-08-20T06:11:09.613Z,993.92
2022-08-20T06:12:09.620Z,993.91
2022-08-20T06:13:13.873Z,993.88
2022-08-20T06:14:09.578Z,993.87
2022-08-20T06:15:09.565Z,993.90
2022-08-20T06:16:09.561Z,993.89
2022-08-20T06:17:09.542Z,993.88
2022-08-20T06:18:16.532Z,993.87
2022-08-20T06:19:11.387Z,993.92
2022-08-20T06:20:09.513Z,993.90
2022-08-20T06:21:09.493Z,993.91
2022-08-20T06:22:18.537Z,993.90
2022-08-20T06:23:09.476Z,993.97
2022-08-20T06:24:09.461Z,993.94
2022-08-20T06:25:09.446Z,994.00
2022-08-20T06:26:09.436Z,993.98
2022-08-20T06:27:09.435Z,994.04
2022-08-20T06:28:09.411Z,993.99
2022-08-20T06:29:09.399Z,993.97
2022-08-20T06:30:09.387Z,993.98
2022-08-20T06:31:09.373Z,994.02
2022-08-20T06:32:09.365Z,993.98
2022-08-20T06:33:09.351Z,993.98
2022-08-20T06:34:09.352Z,994.02
2022-08-20T06:35:09.326Z,994.02
2022-08-20T06:36:09.315Z,994.01
2022-08-20T06:37:09.304Z,994.01
2022-08-20T06:38:09.293Z,994.08
2022-08-20T06:39:09.278Z,994.08
2022-08-20T06:40:09.330Z,994.05
2022-08-20T06:41:09.254Z,994.06
2022-08-20T06:42:09.244Z,994.03
2022-08-20T06:43:09.237Z,994.04
2022-08-20T06:44:09.225Z,994.02
2022-08-20T06:45:09.208Z,994.03
2022-08-20T06:46:09.194Z,994.05
2022-08-20T06:47:09.181Z,994.02
2022-08-20T06:48:09.173Z,994.06
2022-08-20T06:49:09.171Z,994.08
2022-08-20T06:50:09.148Z,994.07
2022-08-20T06:51:09.133Z,994.07
2022-08-20T06:52:09.125Z,994.10
2022-08-20T06:53:09.436Z,994.09
2022-08-20T06:54:09.103Z,994.06
2022-08-20T06:55:09.085Z,994.10
2022-08-20T06:56:09.074Z,994.11
2022-08-20T06:57:09.064Z,994.11
2022-08-20T06:58:32.721Z,994.11
2022-08-20T06:59:09.040Z,994.13
2022-08-20T07:00:09.026Z,994.14
2022-08-20T07:01:10.153Z,994.17
2022-08-20T07:02:09.003Z,994.15
2022-08-20T07:03:08.990Z,994.16
2022-08-20T07:04:08.981Z,994.16
2022-08-20T07:05:08.974Z,994.11
2022-08-20T07:06:08.955Z,994.15
2022-08-20T07:07:08.948Z,994.10
2022-08-20T07:08:08.931Z,994.11
2022-08-20T07:09:08.919Z,994.12
2022-08-20T07:10:08.907Z,994.13
2022-08-20T07:11:08.892Z,994.10
2022-08-20T07:12:08.881Z,994.18
2022-08-20T07:13:08.870Z,994.12
2022-08-20T07:14:08.857Z,994.17
2022-08-20T07:15:08.844Z,994.12
2022-08-20T07:16:08.835Z,994.15
2022-08-20T07:17:09.674Z,994.14
2022-08-20T07:18:08.816Z,994.13
2022-08-20T07:19:08.798Z,994.14
2022-08-20T07:20:08.787Z,994.12
2022-08-20T07:21:08.772Z,994.12
2022-08-20T07:22:08.762Z,994.12
2022-08-20T07:23:08.748Z,994.14
2022-08-20T07:24:08.745Z,994.10
2022-08-20T07:25:08.730Z,994.10
2022-08-20T07:26:08.728Z,994.08
2022-08-20T07:27:08.703Z,994.11
2022-08-20T07:28:08.689Z,994.15
2022-08-20T07:29:08.684Z,994.15
2022-08-20T07:30:12.527Z,994.15
2022-08-20T07:31:13.731Z,994.17
2022-08-20T07:32:08.643Z,994.19
2022-08-20T07:33:08.630Z,994.17
2022-08-20T07:34:08.621Z,994.20
2022-08-20T07:35:08.610Z,994.20
2022-08-20T07:36:08.598Z,994.25
2022-08-20T07:37:09.362Z,994.25
2022-08-20T07:38:08.575Z,994.25
2022-08-20T07:39:08.561Z,994.26
2022-08-20T07:40:08.588Z,994.23
2022-08-20T07:41:08.550Z,994.32
2022-08-20T07:42:08.527Z,994.34
2022-08-20T07:43:08.516Z,994.34
2022-08-20T07:44:08.504Z,994.35
2022-08-20T07:45:08.493Z,994.35
2022-08-20T07:46:08.522Z,994.37
2022-08-20T07:47:08.468Z,994.38
2022-08-20T07:48:08.460Z,994.40
2022-08-20T07:49:08.444Z,994.41
2022-08-20T07:50:08.432Z,994.43
2022-08-20T07:51:08.419Z,994.42
2022-08-20T07:52:08.410Z,994.43
2022-08-20T07:53:08.404Z,994.49
2022-08-20T07:54:08.386Z,994.45
2022-08-20T07:55:08.375Z,994.48
2022-08-20T07:56:08.370Z,994.45
2022-08-20T07:57:08.351Z,994.43
2022-08-20T07:58:08.336Z,994.47
2022-08-20T07:59:08.326Z,994.45
2022-08-20T08:00:08.315Z,994.45
2022-08-20T08:01:08.364Z,994.45
2022-08-20T08:02:08.290Z,994.48
2022-08-20T08:03:08.281Z,994.46
2022-08-20T08:04:08.267Z,994.43
2022-08-20T08:05:08.262Z,994.44
2022-08-20T08:06:08.245Z,994.45
2022-08-20T08:07:08.229Z,994.40
2022-08-20T08:08:08.223Z,994.41
2022-08-20T08:09:08.206Z,994.44
2022-08-20T08:10:08.193Z,994.44
2022-08-20T08:11:08.181Z,994.48
2022-08-20T08:12:08.169Z,994.47
2022-08-20T08:13:08.160Z,994.50
2022-08-20T08:14:08.238Z,994.53
2022-08-20T08:15:08.139Z,994.49
2022-08-20T08:16:08.125Z,994.54
2022-08-20T08:17:08.109Z,994.55
2022-08-20T08:18:08.103Z,994.58
2022-08-20T08:19:08.087Z,994.53
2022-08-20T08:20:08.077Z,994.52
2022-08-20T08:21:08.069Z,994.55
2022-08-20T08:22:08.059Z,994.52
2022-08-20T08:23:08.038Z,994.52
2022-08-20T08:24:08.031Z,994.49
2022-08-20T08:25:08.014Z,994.51
2022-08-20T08:26:08.018Z,994.49
2022-08-20T08:27:07.997Z,994.50
2022-08-20T08:28:07.982Z,994.54
2022-08-20T08:29:07.973Z,994.57
2022-08-20T08:30:07.958Z,994.57
2022-08-20T08:31:07.945Z,994.54
2022-08-20T08:32:08.003Z,994.62
2022-08-20T08:33:07.997Z,994.60
2022-08-20T08:34:07.915Z,994.63
2022-08-20T08:35:07.908Z,994.61
2022-08-20T08:36:07.908Z,994.63
2022-08-20T08:37:07.884Z,994.65
2022-08-20T08:38:07.870Z,994.64
2022-08-20T08:39:07.888Z,994.66
2022-08-20T08:40:07.889Z,994.60
2022-08-20T08:41:07.833Z,994.61
2022-08-20T08:42:07.830Z,994.58
2022-08-20T08:43:07.808Z,994.58
2022-08-20T08:44:07.806Z,994.54
2022-08-20T08:45:07.813Z,994.50
2022-08-20T08:46:07.784Z,994.52
2022-08-20T08:47:07.766Z,994.53
2022-08-20T08:48:07.758Z,994.58
2022-08-20T08:49:07.744Z,994.55
2022-08-20T08:50:07.733Z,994.59
2022-08-20T08:51:07.723Z,994.55
2022-08-20T08:52:07.788Z,994.63
2022-08-20T08:53:07.699Z,994.62
2022-08-20T08:54:07.692Z,994.65
2022-08-20T08:55:07.681Z,994.68
2022-08-20T08:56:07.676Z,994.58
2022-08-20T08:57:07.664Z,994.67
2022-08-20T08:58:16.482Z,994.65
2022-08-20T08:59:07.695Z,994.62
2022-08-20T09:00:07.629Z,994.67
2022-08-20T09:01:11.676Z,994.62
2022-08-20T09:02:07.672Z,994.63
2022-08-20T09:03:07.708Z,994.63
2022-08-20T09:04:07.595Z,994.66
2022-08-20T09:05:07.658Z,994.61
2022-08-20T09:06:07.588Z,994.62
2022-08-20T09:07:07.574Z,994.58
2022-08-20T09:08:07.562Z,994.60
2022-08-20T09:09:07.550Z,994.59
2022-08-20T09:10:07.545Z,994.57
2022-08-20T09:11:07.646Z,994.57
2022-08-20T09:12:07.534Z,994.53
2022-08-20T09:13:07.536Z,994.57
2022-08-20T09:14:07.524Z,994.59
2022-08-20T09:15:07.507Z,994.56
2022-08-20T09:16:07.505Z,994.56
2022-08-20T09:17:07.498Z,994.56
2022-08-20T09:18:07.488Z,994.55
2022-08-20T09:19:07.486Z,994.55
2022-08-20T09:20:07.476Z,994.58
2022-08-20T09:21:07.472Z,994.57
2022-08-20T09:22:07.472Z,994.58
2022-08-20T09:23:07.461Z,994.58
2022-08-20T09:24:07.451Z,994.58
2022-08-20T09:25:07.450Z,994.58
2022-08-20T09:26:07.439Z,994.59
2022-08-20T09:27:07.433Z,994.55
2022-08-20T09:28:07.431Z,994.60
2022-08-20T09:29:07.431Z,994.56
2022-08-20T09:30:07.420Z,994.59
2022-08-20T09:31:07.415Z,994.54
2022-08-20T09:32:07.406Z,994.52
2022-08-20T09:33:07.405Z,994.53
2022-08-20T09:34:07.394Z,994.56
2022-08-20T09:35:09.437Z,994.52
2022-08-20T09:36:29.271Z,994.51
2022-08-20T09:37:07.442Z,994.55
2022-08-20T09:38:07.372Z,994.46
2022-08-20T09:39:07.381Z,994.49
2022-08-20T09:40:07.473Z,994.43
2022-08-20T09:41:07.362Z,994.44
2022-08-20T09:42:07.376Z,994.43
2022-08-20T09:43:07.351Z,994.44
2022-08-20T09:44:07.348Z,994.42
2022-08-20T09:45:10.916Z,994.47
2022-08-20T09:46:07.345Z,994.43
2022-08-20T09:47:07.332Z,994.40
2022-08-20T09:48:10.392Z,994.41
2022-08-20T09:49:10.343Z,994.36
2022-08-20T09:50:07.316Z,994.33
2022-08-20T09:51:07.313Z,994.30
2022-08-20T09:52:07.305Z,994.33
2022-08-20T09:53:07.322Z,994.33
2022-08-20T09:54:07.297Z,994.35
2022-08-20T09:55:07.294Z,994.32
2022-08-20T09:56:07.290Z,994.26
2022-08-20T09:57:07.289Z,994.24
2022-08-20T09:58:07.280Z,994.23
2022-08-20T09:59:07.280Z,994.20
2022-08-20T10:00:07.275Z,994.21
2022-08-20T10:01:07.269Z,994.23
2022-08-20T10:02:07.306Z,994.20
2022-08-20T10:03:07.262Z,994.20
2022-08-20T10:04:07.257Z,994.29
2022-08-20T10:05:07.253Z,994.20
2022-08-20T10:06:07.249Z,994.20
2022-08-20T10:07:07.246Z,994.16
2022-08-20T10:08:07.243Z,994.20
2022-08-20T10:09:07.236Z,994.19
2022-08-20T10:10:07.231Z,994.20
2022-08-20T10:11:07.229Z,994.26
2022-08-20T10:12:07.221Z,994.21
2022-08-20T10:13:07.222Z,994.16
2022-08-20T10:14:07.213Z,994.14
2022-08-20T10:15:07.215Z,994.22
2022-08-20T10:16:07.212Z,994.18
2022-08-20T10:17:07.206Z,994.16
2022-08-20T10:18:07.198Z,994.25
2022-08-20T10:19:07.193Z,994.25
2022-08-20T10:20:07.204Z,994.27
2022-08-20T10:21:07.185Z,994.22
2022-08-20T10:22:07.179Z,994.20
2022-08-20T10:23:07.212Z,994.31
2022-08-20T10:24:07.172Z,994.25
2022-08-20T10:25:07.183Z,994.20
2022-08-20T10:26:07.159Z,994.23
2022-08-20T10:27:07.184Z,994.21
2022-08-20T10:28:07.157Z,994.19
2022-08-20T10:29:07.155Z,994.25
2022-08-20T10:30:07.188Z,994.16
2022-08-20T10:31:07.146Z,994.20
2022-08-20T10:32:07.134Z,994.21
2022-08-20T10:33:07.145Z,994.21
2022-08-20T10:34:07.126Z,994.19
2022-08-20T10:35:07.123Z,994.18
2022-08-20T10:36:07.121Z,994.18
2022-08-20T10:37:07.120Z,994.22
2022-08-20T10:38:07.107Z,994.17
2022-08-20T10:39:07.105Z,994.17
2022-08-20T10:40:07.160Z,994.22
2022-08-20T10:41:07.099Z,994.25
2022-08-20T10:42:07.197Z,994.18
2022-08-20T10:43:07.171Z,994.20
2022-08-20T10:44:07.085Z,994.20
2022-08-20T10:45:07.088Z,994.18
2022-08-20T10:46:07.078Z,994.16
2022-08-20T10:47:07.071Z,994.21
2022-08-20T10:48:07.065Z,994.19
2022-08-20T10:49:07.063Z,994.17
2022-08-20T10:50:07.056Z,994.17
2022-08-20T10:51:07.113Z,994.19
2022-08-20T10:52:07.045Z,994.20
2022-08-20T10:53:07.044Z,994.20
2022-08-20T10:54:12.697Z,994.16
2022-08-20T10:55:07.036Z,994.25
2022-08-20T10:56:07.062Z,994.18
2022-08-20T10:57:07.023Z,994.17
2022-08-20T10:58:07.021Z,994.15
2022-08-20T10:59:07.011Z,994.11
2022-08-20T11:00:07.086Z,994.10
2022-08-20T11:01:07.009Z,994.07
2022-08-20T11:02:07.080Z,994.04
2022-08-20T11:03:06.993Z,994.03
2022-08-20T11:04:07.080Z,994.04
2022-08-20T11:05:06.983Z,994.01
2022-08-20T11:06:06.978Z,994.06
2022-08-20T11:07:06.980Z,994.01
2022-08-20T11:08:06.965Z,994.06
2022-08-20T11:09:06.963Z,994.03
2022-08-20T11:10:11.802Z,994.01
2022-08-20T11:11:06.960Z,993.99
2022-08-20T11:12:06.958Z,993.99
2022-08-20T11:13:06.949Z,994.00
2022-08-20T11:14:06.956Z,993.98
2022-08-20T11:15:06.935Z,993.97
2022-08-20T11:16:06.927Z,993.96
2022-08-20T11:17:06.926Z,994.00
2022-08-20T11:18:06.928Z,993.94
2022-08-20T11:19:06.913Z,994.03
2022-08-20T11:20:06.909Z,993.99
2022-08-20T11:21:06.905Z,993.99
2022-08-20T11:22:06.898Z,993.95
2022-08-20T11:23:06.895Z,993.95
2022-08-20T11:24:06.891Z,993.96
2022-08-20T11:25:06.889Z,994.02
2022-08-20T11:26:06.879Z,993.92
2022-08-20T11:27:06.883Z,993.90
2022-08-20T11:28:06.873Z,993.94
2022-08-20T11:29:06.871Z,993.96
2022-08-20T11:30:06.866Z,993.93
2022-08-20T11:31:06.876Z,993.95
2022-08-20T11:32:06.856Z,993.93
2022-08-20T11:33:06.853Z,993.91
2022-08-20T11:34:12.075Z,993.91
2022-08-20T11:35:38.266Z,993.90
2022-08-20T11:36:06.841Z,993.83
2022-08-20T11:37:06.841Z,993.84
2022-08-20T11:38:06.836Z,993.83
2022-08-20T11:39:06.834Z,993.88
2022-08-20T11:40:06.888Z,993.82
2022-08-20T11:41:06.829Z,993.85
2022-08-20T11:42:06.821Z,993.87
2022-08-20T11:43:15.629Z,993.89
2022-08-20T11:44:21.172Z,993.85
2022-08-20T11:45:06.814Z,993.86
2022-08-20T11:46:06.812Z,993.83
2022-08-20T11:47:06.807Z,993.87
2022-08-20T11:48:06.801Z,993.81
2022-08-20T11:49:06.800Z,993.82
2022-08-20T11:50:06.795Z,993.80
2022-08-20T11:51:06.793Z,993.81
2022-08-20T11:52:06.790Z,993.81
2022-08-20T11:53:08.041Z,993.81
2022-08-20T11:54:06.784Z,993.84
2022-08-20T11:55:06.781Z,993.81
2022-08-20T11:56:06.777Z,993.82
2022-08-20T11:57:06.786Z,993.85
2022-08-20T11:58:06.772Z,993.80
2022-08-20T11:59:06.771Z,993.76
2022-08-20T12:00:06.772Z,993.78
2022-08-20T12:01:06.768Z,993.79
2022-08-20T12:02:11.698Z,993.72
2022-08-20T12:03:09.280Z,993.76
2022-08-20T12:04:06.759Z,993.74
2022-08-20T12:05:06.761Z,993.76
2022-08-20T12:06:06.759Z,993.71
2022-08-20T12:07:06.757Z,993.68
2022-08-20T12:08:06.751Z,993.67
2022-08-20T12:09:06.757Z,993.65
2022-08-20T12:10:06.752Z,993.67
2022-08-20T12:11:06.752Z,993.66
2022-08-20T12:12:06.743Z,993.64
2022-08-20T12:13:06.744Z,993.69
2022-08-20T12:14:06.741Z,993.66
2022-08-20T12:15:06.739Z,993.66
2022-08-20T12:16:06.742Z,993.61
2022-08-20T12:17:06.738Z,993.63
2022-08-20T12:18:06.749Z,993.66
2022-08-20T12:19:16.453Z,993.63
2022-08-20T12:21:13.744Z,993.60
2022-08-20T12:22:24.880Z,993.53
2022-08-20T12:23:13.701Z,993.62
2022-08-20T12:24:13.699Z,993.56
2022-08-20T12:25:13.710Z,993.58
2022-08-20T12:26:13.713Z,993.59
2022-08-20T12:27:13.698Z,993.55
2022-08-20T12:28:13.701Z,993.55
2022-08-20T12:29:13.702Z,993.59